createdAt,value
2023-03-29T10:49:58.585Z,9.57
2023-03-29T10:58:58.021Z,10.56
2023-03-29T11:03:57.070Z,10.79
2023-03-29T11:08:56.551Z,10.93
2023-03-29T11:13:55.336Z,11.24
2023-03-29T11:18:54.694Z,11.25
2023-03-29T11:23:54.869Z,11.14
2023-03-29T11:28:54.452Z,10.99
2023-03-29T11:33:53.912Z,11.1
2023-03-29T11:38:54.139Z,11.1
2023-03-29T11:43:54.962Z,11
2023-03-29T11:48:53.826Z,10.86
2023-03-29T11:53:52.205Z,10.93
2023-03-29T11:58:51.757Z,11
2023-03-29T12:03:52.039Z,10.94
2023-03-29T12:08:51.137Z,10.94
2023-03-29T12:13:50.851Z,10.94
2023-03-29T12:18:50.330Z,11.09
2023-03-29T12:23:50.053Z,11.38
2023-03-29T12:28:49.305Z,11.5
2023-03-29T12:33:49.907Z,11.6
2023-03-29T12:38:47.839Z,11.75
2023-03-29T12:43:47.617Z,11.91
2023-03-29T12:48:46.589Z,12.02
2023-03-29T12:53:46.441Z,12.42
2023-03-29T12:58:44.576Z,12.32
2023-03-29T13:03:44.276Z,12.31
2023-03-29T13:08:44.406Z,12.38
2023-03-29T13:13:43.760Z,12.45
2023-03-29T13:18:41.540Z,12.49
2023-03-29T13:23:41.201Z,12.46
2023-03-29T13:28:41.273Z,12.42
2023-03-29T13:33:40.884Z,12.49
2023-03-29T13:38:39.332Z,12.71
2023-03-29T13:43:39.241Z,12.9
2023-03-29T13:48:39.234Z,13.03
2023-03-29T13:53:38.703Z,13.12
2023-03-29T13:58:38.041Z,13.17
2023-03-29T14:00:17.269Z,13.12
2023-03-29T14:04:58.556Z,13.05
2023-03-29T14:14:59.037Z,12.83
2023-03-29T14:19:56.844Z,12.63
2023-03-29T14:59:13.764Z,12.38
2023-03-29T15:04:13.535Z,12.34
2023-03-29T15:09:12.892Z,12.32
2023-03-29T15:14:13.385Z,12.37
2023-03-29T15:19:11.001Z,12.39
2023-03-29T15:24:10.415Z,12.33
2023-03-29T15:29:11.070Z,12.33
2023-03-29T15:34:10.380Z,12.32
2023-03-29T15:39:08.604Z,12.32
2023-03-29T15:44:08.301Z,12.21
2023-03-29T15:49:08.283Z,12.15
2023-03-29T15:54:07.712Z,12
2023-03-29T15:58:54.127Z,11.91
2023-03-29T16:03:53.874Z,11.81
2023-03-29T16:08:55.529Z,11.71
2023-03-29T16:13:53.354Z,11.61
2023-03-29T16:18:53.949Z,11.54
2023-03-29T16:23:51.469Z,11.48
2023-03-29T16:28:50.965Z,11.43
2023-03-29T16:33:50.732Z,11.39
2023-03-29T16:38:49.752Z,11.34
2023-03-29T16:43:49.228Z,11.27
2023-03-29T16:48:49.179Z,11.2
2023-03-29T16:53:48.380Z,11.13
2023-03-29T16:58:48.988Z,11.03
2023-03-29T17:03:46.328Z,10.93
2023-03-29T17:08:46.100Z,10.85
2023-03-29T17:13:45.313Z,10.79
2023-03-29T17:18:44.817Z,10.77
2023-03-29T17:23:43.391Z,10.74
2023-03-29T17:28:43.026Z,10.72
2023-03-29T17:33:43.049Z,10.69
2023-03-29T17:38:42.569Z,10.68
2023-03-29T17:43:41.925Z,10.65
2023-03-29T17:48:41.937Z,10.59
2023-03-29T17:53:41.611Z,10.54
2023-03-29T17:58:40.958Z,10.5
2023-03-29T18:03:41.971Z,10.47
2023-03-29T18:08:38.912Z,10.45
2023-03-29T18:13:39.551Z,10.43
2023-03-29T18:18:38.801Z,10.4
2023-03-29T18:23:38.139Z,10.37
2023-03-29T18:28:37.616Z,10.34
2023-03-29T18:33:37.450Z,10.31
2023-03-29T18:38:36.723Z,10.29
2023-03-29T18:43:37.621Z,10.27
2023-03-29T18:48:35.311Z,10.26
2023-03-29T18:53:35.351Z,10.22
2023-03-29T18:58:34.272Z,10.17
2023-03-29T18:59:56.040Z,10.16
2023-03-29T19:19:53.563Z,10.01
2023-03-29T19:59:10.272Z,9.64
2023-03-29T20:04:09.544Z,9.63
2023-03-29T20:09:09.229Z,9.6
2023-03-29T20:14:09.168Z,9.6
2023-03-29T20:19:08.573Z,9.59
2023-03-29T20:24:09.261Z,9.57
2023-03-29T20:29:06.690Z,9.56
2023-03-29T20:34:06.647Z,9.55
2023-03-29T20:39:05.975Z,9.54
2023-03-29T20:44:05.196Z,9.54
2023-03-29T20:49:14.151Z,9.54
2023-03-29T20:54:14.281Z,9.53
2023-03-29T20:58:20.336Z,9.52
2023-03-29T21:03:21.246Z,9.49
2023-03-29T21:08:18.536Z,9.47
2023-03-29T21:13:18.177Z,9.46
2023-03-29T21:18:18.258Z,9.46
2023-03-29T21:23:18.107Z,9.46
2023-03-29T21:28:17.375Z,9.47
2023-03-29T21:33:17.196Z,9.47
2023-03-29T21:38:16.528Z,9.47
2023-03-29T21:43:17.260Z,9.5
2023-03-29T21:48:14.540Z,9.53
2023-03-29T21:53:14.407Z,9.56
2023-03-29T21:58:13.596Z,9.57
2023-03-29T21:59:35.691Z,9.58
2023-03-29T22:04:36.843Z,9.59
2023-03-29T22:09:33.562Z,9.59
2023-03-29T22:14:33.647Z,9.59
2023-03-29T22:19:33.122Z,9.6
2023-03-29T22:24:32.454Z,9.59
2023-03-29T22:29:31.977Z,9.56
2023-03-29T22:34:31.783Z,9.54
2023-03-29T22:39:31.314Z,9.55
2023-03-29T22:44:32.151Z,9.53
2023-03-29T22:49:29.151Z,9.51
2023-03-29T22:54:29.018Z,9.47
2023-03-29T22:59:15.804Z,9.43
2023-03-29T23:04:15.159Z,9.39
2023-03-29T23:09:16.357Z,9.41
2023-03-29T23:14:14.733Z,9.41
2023-03-29T23:19:13.692Z,9.39
2023-03-29T23:24:15.002Z,9.39
2023-03-29T23:29:11.993Z,9.39
2023-03-29T23:34:11.996Z,9.39
2023-03-29T23:39:11.322Z,9.39
2023-03-29T23:44:10.699Z,9.41
2023-03-29T23:49:09.107Z,9.41
2023-03-29T23:54:08.937Z,9.41
2023-03-29T23:58:55.160Z,9.43
